Time;durP1;ratioP1;P1;durP2;ratioP2;P2;SDS_P1;SDS_P2;PMS_P1;PMS_P2;Temp;Humidity;BMP_temperature;BMP_pressure;BME280_temperature;BME280_humidity;BME280_pressure;Samples;Min_cycle;Max_cycle;Signal;HPM_P1;HPM_P2
2021/06/10 00:01:18;;;;;;;4.62;3.55;;;20.90;74.10;;;;;;2319581;54;20961;-71
2021/06/10 00:03:45;;;;;;;5.10;3.05;;;20.90;74.10;;;;;;2314787;54;20980;-67
2021/06/10 00:06:11;;;;;;;4.20;2.97;;;20.80;74.00;;;;;;2318015;54;20952;-70
2021/06/10 00:08:37;;;;;;;5.20;3.58;;;20.80;74.10;;;;;;2313445;54;21020;-73
2021/06/10 00:11:06;;;;;;;4.65;3.28;;;20.80;74.20;;;;;;2316603;54;22008;-68
2021/06/10 00:13:33;;;;;;;4.95;3.37;;;20.70;74.20;;;;;;2317975;54;21076;-67
2021/06/10 00:16:01;;;;;;;5.53;3.33;;;20.70;74.20;;;;;;2313927;54;21882;-74
2021/06/10 00:18:27;;;;;;;4.72;3.25;;;20.70;74.40;;;;;;2319126;54;20973;-70
2021/06/10 00:20:53;;;;;;;5.80;3.33;;;20.60;74.40;;;;;;2318798;54;20933;-66
2021/06/10 00:23:23;;;;;;;5.18;3.47;;;20.70;74.60;;;;;;2315456;54;20964;-67
2021/06/10 00:25:50;;;;;;;4.45;3.42;;;20.60;74.50;;;;;;2547631;53;21083;-66
2021/06/10 00:28:47;;;;;;;5.55;3.72;;;20.60;74.80;;;;;;2312498;54;20969;-66
2021/06/10 00:31:17;;;;;;;4.75;3.72;;;20.60;74.00;;;;;;2315684;54;21032;-71
2021/06/10 00:33:43;;;;;;;5.43;3.85;;;20.60;74.80;;;;;;2291572;54;22453;-69
2021/06/10 00:36:09;;;;;;;5.62;4.10;;;20.60;75.10;;;;;;2315833;54;21100;-66
2021/06/10 00:38:36;;;;;;;4.72;3.42;;;20.50;75.10;;;;;;2375917;53;21064;-71
2021/06/10 00:41:02;;;;;;;5.37;3.92;;;20.60;75.20;;;;;;2321243;54;20980;-73
2021/06/10 00:43:31;;;;;;;4.90;3.85;;;20.50;75.30;;;;;;2315792;54;21044;-67
2021/06/10 00:45:57;;;;;;;5.28;3.70;;;20.50;75.30;;;;;;2395061;53;20977;-67
2021/06/10 00:48:24;;;;;;;4.90;3.78;;;20.50;75.40;;;;;;2313795;54;21009;-67
2021/06/10 00:50:51;;;;;;;5.10;3.92;;;20.50;75.40;;;;;;2314449;54;20985;-67
2021/06/10 00:53:25;;;;;;;4.95;4.00;;;20.50;75.40;;;;;;2314569;54;21029;-71
2021/06/10 00:56:02;;;;;;;4.37;3.53;;;20.50;75.50;;;;;;2535935;53;20989;-72
2021/06/10 00:58:28;;;;;;;4.82;3.55;;;20.50;75.00;;;;;;2466992;53;20969;-67
2021/06/10 01:00:54;;;;;;;4.90;3.60;;;20.50;75.60;;;;;;2306387;54;21000;-67
2021/06/10 01:03:21;;;;;;;5.60;3.95;;;20.50;75.60;;;;;;2316143;54;22207;-70
2021/06/10 01:05:51;;;;;;;4.18;3.25;;;20.50;75.70;;;;;;2319537;54;21025;-66
2021/06/10 01:08:54;;;;;;;6.03;3.67;;;20.50;75.50;;;;;;2314407;54;20987;-67
2021/06/10 01:11:31;;;;;;;4.72;3.70;;;20.50;74.80;;;;;;2318481;54;21024;-67
2021/06/10 01:15:16;;;;;;;4.87;3.58;;;20.50;75.40;;;;;;2315954;54;20960;-66
2021/06/10 01:17:44;;;;;;;6.47;3.37;;;20.50;74.70;;;;;;2317883;54;20960;-69
2021/06/10 01:20:21;;;;;;;5.00;3.47;;;20.50;75.30;;;;;;2328014;54;20968;-67
2021/06/10 01:23:06;;;;;;;4.82;3.62;;;20.50;74.80;;;;;;2311684;54;20977;-67
2021/06/10 01:25:46;;;;;;;4.97;3.53;;;20.40;74.60;;;;;;2309450;54;21041;-71
2021/06/10 01:28:20;;;;;;;4.93;3.70;;;20.40;74.90;;;;;;2308573;54;21072;-71
2021/06/10 01:31:19;;;;;;;5.40;3.92;;;20.40;75.00;;;;;;2388042;54;21882;-66
2021/06/10 01:33:50;;;;;;;5.57;4.10;;;20.40;74.20;;;;;;2318793;54;21150;-67
2021/06/10 01:36:22;;;;;;;4.97;3.60;;;20.30;74.90;;;;;;2320456;54;20962;-72
2021/06/10 01:38:52;;;;;;;5.55;3.62;;;20.30;74.80;;;;;;2311756;54;21007;-67
2021/06/10 01:41:19;;;;;;;5.32;4.05;;;20.30;75.10;;;;;;2309543;54;21093;-70
2021/06/10 01:43:45;;;;;;;5.20;4.30;;;20.30;75.40;;;;;;2314823;54;20964;-66
2021/06/10 01:46:11;;;;;;;5.68;4.07;;;20.30;75.50;;;;;;2317003;54;21749;-71
2021/06/10 01:48:39;;;;;;;5.70;4.07;;;20.20;75.60;;;;;;2319900;54;21017;-67
2021/06/10 01:51:06;;;;;;;5.30;4.22;;;20.20;75.70;;;;;;2317285;54;20988;-68
2021/06/10 01:53:32;;;;;;;4.82;3.92;;;20.20;75.80;;;;;;2317327;54;20973;-67
2021/06/10 01:55:59;;;;;;;4.90;3.72;;;20.20;75.90;;;;;;2316963;54;20977;-72
2021/06/10 01:58:25;;;;;;;5.25;3.83;;;20.20;76.70;;;;;;2314494;54;21002;-69
2021/06/10 02:00:52;;;;;;;5.70;4.25;;;20.20;76.10;;;;;;2316338;54;20981;-70
2021/06/10 02:03:22;;;;;;;7.18;4.55;;;20.20;76.00;;;;;;2397028;53;21041;-67
2021/06/10 02:05:48;;;;;;;5.55;4.00;;;20.20;76.10;;;;;;2318478;54;21022;-67
2021/06/10 02:08:17;;;;;;;6.30;4.75;;;20.20;76.10;;;;;;2318263;54;20959;-68
2021/06/10 02:10:48;;;;;;;4.62;3.65;;;20.30;76.10;;;;;;2545934;53;21057;-70
2021/06/10 02:13:16;;;;;;;5.37;3.85;;;20.30;76.10;;;;;;2314751;54;21414;-71
2021/06/10 02:15:43;;;;;;;5.50;3.85;;;20.30;76.10;;;;;;2298145;54;20985;-67
2021/06/10 02:18:09;;;;;;;6.10;4.15;;;20.30;76.20;;;;;;2315189;54;20969;-69
2021/06/10 02:20:36;;;;;;;5.87;4.22;;;20.30;76.10;;;;;;2315199;54;20988;-69
2021/06/10 02:23:02;;;;;;;5.50;4.22;;;20.30;76.10;;;;;;2319422;54;20972;-67
2021/06/10 02:25:32;;;;;;;6.07;4.10;;;20.30;76.10;;;;;;2315418;54;20973;-67
2021/06/10 02:27:58;;;;;;;4.95;3.55;;;20.30;76.10;;;;;;2315418;54;21462;-68
2021/06/10 02:30:24;;;;;;;5.00;3.65;;;20.30;76.00;;;;;;2319363;53;21069;-69
2021/06/10 02:32:50;;;;;;;5.03;3.97;;;20.30;75.90;;;;;;2314921;54;21308;-67
2021/06/10 02:35:17;;;;;;;5.32;4.07;;;20.30;76.10;;;;;;2320830;54;20969;-67
2021/06/10 02:37:45;;;;;;;5.28;3.92;;;20.20;75.70;;;;;;2546186;53;21875;-71
2021/06/10 02:40:13;;;;;;;5.20;3.75;;;20.20;75.60;;;;;;2317563;54;20996;-72
2021/06/10 02:42:41;;;;;;;5.50;4.43;;;20.20;75.60;;;;;;2314450;54;21485;-67
2021/06/10 02:45:08;;;;;;;6.03;3.90;;;20.20;75.60;;;;;;2319590;54;21050;-68
2021/06/10 02:47:34;;;;;;;5.00;3.78;;;20.20;75.50;;;;;;2382912;54;21009;-71
2021/06/10 02:50:01;;;;;;;5.62;3.72;;;20.20;75.20;;;;;;2316810;54;21079;-72
2021/06/10 02:52:27;;;;;;;4.87;4.03;;;20.20;75.00;;;;;;2298609;54;20980;-67
2021/06/10 02:54:57;;;;;;;7.10;4.60;;;20.10;75.00;;;;;;2314396;54;20989;-67
2021/06/10 02:57:23;;;;;;;6.60;3.97;;;20.10;75.20;;;;;;2315726;54;20992;-68
2021/06/10 02:59:50;;;;;;;6.12;4.68;;;20.00;75.20;;;;;;2549074;53;21241;-72
2021/06/10 03:02:16;;;;;;;4.75;3.67;;;20.00;75.30;;;;;;2314733;54;21049;-70
2021/06/10 03:04:43;;;;;;;5.30;4.07;;;20.00;75.40;;;;;;2499723;53;20961;-69
2021/06/10 03:07:16;;;;;;;6.72;4.47;;;20.00;75.40;;;;;;2319866;54;21029;-69
2021/06/10 03:10:18;;;;;;;6.57;4.40;;;19.90;75.00;;;;;;2314002;54;21089;-67
2021/06/10 03:12:45;;;;;;;6.72;4.30;;;19.90;74.70;;;;;;2308551;54;20993;-67
2021/06/10 03:15:11;;;;;;;6.12;4.10;;;19.90;75.40;;;;;;2414586;54;20992;-71
2021/06/10 03:17:38;;;;;;;5.57;3.97;;;19.90;75.50;;;;;;2318142;54;21051;-69
2021/06/10 03:20:05;;;;;;;5.43;4.10;;;19.80;75.60;;;;;;2548952;53;20984;-70
2021/06/10 03:22:32;;;;;;;5.65;4.45;;;19.80;75.60;;;;;;2315368;54;20949;-72
2021/06/10 03:24:59;;;;;;;5.35;4.00;;;19.80;75.70;;;;;;2318692;54;20961;-67
2021/06/10 03:27:25;;;;;;;4.35;3.42;;;19.80;75.70;;;;;;2330763;54;21013;-70
2021/06/10 03:29:53;;;;;;;4.65;3.55;;;19.80;75.70;;;;;;2319208;54;20973;-70
2021/06/10 03:32:19;;;;;;;5.25;4.03;;;19.80;75.70;;;;;;2317511;54;21026;-66
2021/06/10 03:34:45;;;;;;;4.85;3.58;;;19.80;75.80;;;;;;2304883;54;21047;-67
2021/06/10 03:37:11;;;;;;;5.35;3.75;;;19.80;75.70;;;;;;2315979;54;21844;-68
2021/06/10 03:39:41;;;;;;;5.70;4.43;;;19.80;75.70;;;;;;2316755;54;21498;-71
2021/06/10 03:42:07;;;;;;;5.35;4.32;;;19.80;75.80;;;;;;2306450;54;20935;-68
2021/06/10 03:44:33;;;;;;;6.37;4.60;;;19.70;75.80;;;;;;2312308;54;21008;-71
2021/06/10 03:47:01;;;;;;;6.12;4.75;;;19.70;75.90;;;;;;2315354;54;21072;-70
2021/06/10 03:49:29;;;;;;;6.15;4.35;;;19.70;76.10;;;;;;2315495;54;20973;-69
2021/06/10 03:51:58;;;;;;;5.68;4.40;;;19.70;76.10;;;;;;2304281;54;21004;-70
2021/06/10 03:54:24;;;;;;;5.00;4.10;;;19.70;76.20;;;;;;2318019;54;21915;-68
2021/06/10 03:56:52;;;;;;;5.03;3.83;;;19.70;76.30;;;;;;2545860;53;20997;-72
2021/06/10 03:59:36;;;;;;;5.50;4.00;;;19.70;76.30;;;;;;2315654;54;20986;-66
2021/06/10 04:02:03;;;;;;;5.65;4.28;;;19.70;75.80;;;;;;2313155;54;20957;-72
2021/06/10 04:04:29;;;;;;;5.85;4.15;;;19.70;76.50;;;;;;2315547;54;21017;-68
2021/06/10 04:06:57;;;;;;;5.28;4.25;;;19.80;76.70;;;;;;2317357;54;20972;-73
2021/06/10 04:09:23;;;;;;;5.22;3.95;;;19.80;76.80;;;;;;2314283;54;20974;-67
2021/06/10 04:11:50;;;;;;;6.40;4.37;;;19.80;76.80;;;;;;2315708;54;21493;-74
2021/06/10 04:14:16;;;;;;;5.47;4.45;;;19.80;76.80;;;;;;2317798;54;21736;-71
2021/06/10 04:16:42;;;;;;;5.50;4.18;;;19.80;76.80;;;;;;2314590;54;20977;-67
2021/06/10 04:19:11;;;;;;;5.90;4.32;;;19.80;76.80;;;;;;2316390;53;20988;-67
2021/06/10 04:21:38;;;;;;;5.40;4.22;;;19.80;76.90;;;;;;2308866;54;21028;-71
2021/06/10 04:24:05;;;;;;;7.28;4.95;;;19.90;77.10;;;;;;2315672;54;21483;-69
2021/06/10 04:26:32;;;;;;;5.80;4.57;;;19.90;77.20;;;;;;2314562;54;21033;-67
2021/06/10 04:28:58;;;;;;;6.00;4.62;;;19.90;77.20;;;;;;2317477;54;21945;-69
2021/06/10 04:31:25;;;;;;;6.15;4.90;;;19.90;77.30;;;;;;2315950;54;22092;-67
2021/06/10 04:33:51;;;;;;;5.78;4.32;;;20.00;77.50;;;;;;2316231;54;20982;-67
2021/06/10 04:36:19;;;;;;;5.70;4.43;;;20.10;77.70;;;;;;2318988;53;20949;-71
2021/06/10 04:38:51;;;;;;;7.10;5.22;;;20.00;77.70;;;;;;2315696;54;20984;-67
2021/06/10 04:41:17;;;;;;;6.18;4.80;;;20.10;77.60;;;;;;2313863;54;20933;-69
2021/06/10 04:43:46;;;;;;;5.50;4.57;;;20.10;77.70;;;;;;2528826;53;21051;-67
2021/06/10 04:46:12;;;;;;;6.90;4.93;;;20.20;77.80;;;;;;2320066;54;21079;-67
2021/06/10 04:48:44;;;;;;;5.05;4.32;;;20.20;77.80;;;;;;2546255;53;21029;-73
2021/06/10 04:51:10;;;;;;;5.90;4.75;;;20.30;77.70;;;;;;2316922;54;20995;-69
2021/06/10 04:53:40;;;;;;;5.40;4.32;;;20.30;77.80;;;;;;2530998;53;20977;-67
2021/06/10 04:56:06;;;;;;;5.30;4.35;;;20.30;77.90;;;;;;2313326;54;21826;-70
2021/06/10 04:58:34;;;;;;;8.20;5.00;;;20.40;78.00;;;;;;2415249;53;21036;-67
2021/06/10 05:01:00;;;;;;;6.60;4.72;;;20.40;78.00;;;;;;2312715;54;21021;-67
2021/06/10 05:03:26;;;;;;;6.07;5.05;;;20.50;78.10;;;;;;2314116;54;21751;-70
2021/06/10 05:05:53;;;;;;;6.12;4.78;;;20.50;78.20;;;;;;2306311;54;21708;-67
2021/06/10 05:08:19;;;;;;;5.78;4.30;;;20.50;78.20;;;;;;2313013;54;20974;-73
2021/06/10 05:10:46;;;;;;;5.65;4.50;;;20.60;78.40;;;;;;2311358;54;20973;-67
2021/06/10 05:13:12;;;;;;;5.80;4.47;;;20.60;78.30;;;;;;2315315;54;20972;-68
2021/06/10 05:15:39;;;;;;;5.87;4.60;;;20.70;78.40;;;;;;2511277;53;21017;-70
2021/06/10 05:18:06;;;;;;;5.40;4.20;;;20.80;78.50;;;;;;2308678;54;21824;-67
2021/06/10 05:20:32;;;;;;;6.87;4.70;;;20.80;78.60;;;;;;2305949;54;21031;-67
2021/06/10 05:22:59;;;;;;;5.90;4.32;;;20.90;78.60;;;;;;2397103;54;21005;-68
2021/06/10 05:25:26;;;;;;;5.55;4.43;;;21.00;78.70;;;;;;2310529;54;21074;-73
2021/06/10 05:27:53;;;;;;;8.65;4.20;;;21.00;78.70;;;;;;2315514;54;20957;-69
2021/06/10 05:30:20;;;;;;;5.78;4.75;;;21.10;78.80;;;;;;2325706;54;21032;-71
2021/06/10 05:32:46;;;;;;;5.55;4.10;;;21.10;78.80;;;;;;2311818;54;20957;-67
2021/06/10 05:35:12;;;;;;;5.60;4.32;;;21.20;78.90;;;;;;2313695;54;21874;-67
2021/06/10 05:37:39;;;;;;;7.47;4.28;;;21.30;79.40;;;;;;2314767;54;21893;-71
2021/06/10 05:40:06;;;;;;;5.55;4.53;;;21.30;79.00;;;;;;2318816;54;21970;-71
2021/06/10 05:42:33;;;;;;;6.05;4.78;;;21.40;79.10;;;;;;2316898;54;21699;-68
2021/06/10 05:45:00;;;;;;;5.72;4.57;;;21.50;79.10;;;;;;2315024;54;21021;-68
2021/06/10 05:47:26;;;;;;;6.03;4.62;;;21.60;79.10;;;;;;2314352;54;21001;-69
2021/06/10 05:49:53;;;;;;;5.40;4.50;;;21.70;79.10;;;;;;2318250;54;21391;-69
2021/06/10 05:52:23;;;;;;;7.00;4.43;;;21.70;79.10;;;;;;2315424;54;20973;-67
2021/06/10 05:54:52;;;;;;;7.68;4.72;;;21.80;79.10;;;;;;2318785;54;21242;-68
2021/06/10 05:57:20;;;;;;;5.75;4.75;;;21.90;78.80;;;;;;2318245;54;20941;-67
2021/06/10 05:59:49;;;;;;;6.35;4.80;;;22.00;79.10;;;;;;2546107;53;20976;-71
2021/06/10 06:02:15;;;;;;;5.40;4.55;;;22.10;79.10;;;;;;2315855;54;21025;-70
2021/06/10 06:04:42;;;;;;;5.50;4.40;;;22.10;78.90;;;;;;2317487;54;21501;-68
2021/06/10 06:07:25;;;;;;;5.12;4.00;;;22.30;79.00;;;;;;2315012;54;20965;-67
2021/06/10 06:09:52;;;;;;;5.53;4.30;;;22.30;77.70;;;;;;2318247;54;20981;-69
2021/06/10 06:12:21;;;;;;;6.57;5.20;;;22.40;78.80;;;;;;2316429;54;20989;-67
2021/06/10 06:14:47;;;;;;;7.93;4.82;;;22.40;78.30;;;;;;2287290;54;21004;-68
2021/06/10 06:17:13;;;;;;;6.25;4.78;;;22.50;78.40;;;;;;2317351;54;21013;-71
2021/06/10 06:19:40;;;;;;;6.18;4.78;;;22.60;78.40;;;;;;2305460;54;21543;-68
2021/06/10 06:22:07;;;;;;;5.90;4.78;;;22.60;78.40;;;;;;2317709;54;20985;-71
2021/06/10 06:24:34;;;;;;;8.10;5.22;;;22.70;78.20;;;;;;2318171;54;21056;-67
2021/06/10 06:27:01;;;;;;;6.30;5.18;;;22.80;78.20;;;;;;2316376;54;20981;-74
2021/06/10 06:29:27;;;;;;;5.85;4.78;;;22.80;78.00;;;;;;2316518;54;20981;-67
2021/06/10 06:31:54;;;;;;;6.25;5.25;;;22.90;77.80;;;;;;2313573;54;21481;-72
2021/06/10 06:34:20;;;;;;;5.97;4.97;;;23.00;77.30;;;;;;2313806;53;21064;-70
2021/06/10 06:36:46;;;;;;;6.00;4.90;;;23.00;77.10;;;;;;2318705;54;21941;-69
2021/06/10 06:39:14;;;;;;;6.65;5.78;;;23.10;77.00;;;;;;2315514;54;21085;-68
2021/06/10 06:41:40;;;;;;;6.72;5.05;;;23.10;76.30;;;;;;2521156;53;21044;-67
2021/06/10 06:44:06;;;;;;;5.12;3.95;;;23.10;76.20;;;;;;2312390;54;20956;-70
2021/06/10 06:46:33;;;;;;;5.25;4.15;;;23.10;76.30;;;;;;2316711;54;20957;-68
2021/06/10 06:48:59;;;;;;;5.22;4.03;;;23.20;76.30;;;;;;2318423;54;22315;-68
2021/06/10 06:51:25;;;;;;;5.28;4.22;;;23.20;76.40;;;;;;2315900;54;21037;-68
2021/06/10 06:53:54;;;;;;;5.32;4.22;;;23.20;76.60;;;;;;2316887;54;21028;-67
2021/06/10 06:56:22;;;;;;;5.95;4.70;;;23.20;76.30;;;;;;2317720;54;20991;-69
2021/06/10 06:58:48;;;;;;;6.05;4.65;;;23.30;76.30;;;;;;2545525;53;21028;-69
2021/06/10 07:01:15;;;;;;;4.68;3.70;;;23.30;76.40;;;;;;2301460;54;21028;-70
2021/06/10 07:03:41;;;;;;;5.62;3.72;;;23.40;76.60;;;;;;2319959;54;20964;-73
2021/06/10 07:06:07;;;;;;;5.00;3.53;;;23.40;76.60;;;;;;2313102;54;20969;-70
2021/06/10 07:08:33;;;;;;;5.37;4.65;;;23.50;76.90;;;;;;2543135;53;21528;-68
2021/06/10 07:11:01;;;;;;;10.17;5.00;;;23.50;76.70;;;;;;2306210;54;1327777;-68
2021/06/10 07:13:27;;;;;;;5.80;4.40;;;23.60;76.60;;;;;;2314011;54;21689;-68
2021/06/10 07:15:54;;;;;;;5.47;4.47;;;23.60;76.40;;;;;;2311496;54;21127;-69
2021/06/10 07:18:20;;;;;;;4.95;3.90;;;23.60;76.30;;;;;;2541297;53;21129;-68
2021/06/10 07:20:49;;;;;;;6.75;4.87;;;23.70;76.30;;;;;;2307469;54;20989;-69
2021/06/10 07:23:15;;;;;;;5.45;4.70;;;23.70;76.10;;;;;;2314278;54;20947;-68
2021/06/10 07:25:41;;;;;;;5.30;4.28;;;23.70;75.70;;;;;;2316264;54;20973;-70
2021/06/10 07:28:08;;;;;;;5.95;4.70;;;23.80;75.90;;;;;;2312765;54;21000;-71
2021/06/10 07:30:35;;;;;;;6.62;4.72;;;23.80;76.00;;;;;;2311864;54;20965;-68
2021/06/10 07:33:03;;;;;;;6.55;4.93;;;23.80;76.00;;;;;;2304931;54;21867;-68
2021/06/10 07:35:33;;;;;;;6.07;4.85;;;23.90;76.10;;;;;;2315465;54;21001;-68
2021/06/10 07:38:00;;;;;;;5.75;4.80;;;23.90;75.60;;;;;;2484314;53;21043;-68
2021/06/10 07:40:28;;;;;;;6.60;5.57;;;23.90;75.80;;;;;;2314910;54;20976;-71
2021/06/10 07:42:56;;;;;;;6.68;5.68;;;23.90;75.40;;;;;;2319912;54;21081;-71
2021/06/10 07:45:23;;;;;;;7.53;5.75;;;24.00;75.30;;;;;;2543669;53;20961;-73
2021/06/10 07:47:49;;;;;;;5.93;5.05;;;24.00;75.20;;;;;;2315262;54;21543;-68
2021/06/10 07:50:16;;;;;;;6.53;5.65;;;24.00;75.20;;;;;;2312341;54;21032;-68
2021/06/10 07:52:42;;;;;;;6.40;5.30;;;24.00;75.40;;;;;;2311183;54;21005;-68
2021/06/10 07:55:09;;;;;;;6.53;5.28;;;24.00;75.50;;;;;;2315325;54;20997;-68
2021/06/10 07:57:38;;;;;;;8.23;5.25;;;24.00;75.50;;;;;;2534284;53;20985;-68
2021/06/10 08:00:05;;;;;;;7.75;5.53;;;24.10;75.70;;;;;;2316422;54;21010;-69
2021/06/10 08:02:38;;;;;;;7.30;5.60;;;24.10;75.50;;;;;;2285858;54;21581;-70
2021/06/10 08:05:05;;;;;;;7.35;5.87;;;24.10;75.50;;;;;;2315540;54;20973;-68
2021/06/10 08:07:31;;;;;;;6.18;4.90;;;24.10;75.40;;;;;;2303262;54;21023;-67
2021/06/10 08:09:58;;;;;;;8.77;6.22;;;24.10;75.50;;;;;;2322416;54;20932;-70
2021/06/10 08:12:24;;;;;;;6.55;5.57;;;24.10;75.30;;;;;;2313651;54;21429;-68
2021/06/10 08:14:50;;;;;;;8.68;6.55;;;24.10;75.60;;;;;;2321525;54;20997;-68
2021/06/10 08:17:17;;;;;;;8.30;6.25;;;24.20;76.00;;;;;;2292899;53;20965;-68
2021/06/10 08:19:43;;;;;;;7.93;6.07;;;24.20;76.10;;;;;;2318790;54;21015;-68
2021/06/10 08:22:13;;;;;;;7.40;6.55;;;24.20;76.30;;;;;;2317658;54;21499;-69
2021/06/10 08:24:39;;;;;;;7.95;5.85;;;24.30;76.60;;;;;;2321109;54;21521;-68
2021/06/10 08:27:07;;;;;;;6.75;5.72;;;24.40;76.80;;;;;;2313603;54;20993;-67
2021/06/10 08:29:33;;;;;;;8.13;6.53;;;24.40;76.90;;;;;;2301296;54;20952;-68
2021/06/10 08:31:59;;;;;;;6.85;5.85;;;24.50;77.00;;;;;;2290118;54;21063;-71
2021/06/10 08:34:25;;;;;;;6.87;5.80;;;24.60;77.10;;;;;;2316421;54;20987;-69
2021/06/10 08:36:52;;;;;;;7.78;6.62;;;24.70;77.10;;;;;;2315137;54;20981;-69
2021/06/10 08:39:49;;;;;;;6.82;5.65;;;24.80;77.10;;;;;;2307541;54;21094;-68
2021/06/10 08:42:15;;;;;;;7.00;5.80;;;24.90;75.60;;;;;;2298488;54;21043;-71
2021/06/10 08:44:42;;;;;;;7.85;6.20;;;24.90;77.20;;;;;;2539674;53;21082;-68
2021/06/10 08:47:09;;;;;;;7.97;6.62;;;25.00;77.00;;;;;;2310414;54;21533;-68
2021/06/10 08:49:35;;;;;;;9.82;6.87;;;25.10;76.80;;;;;;2320882;54;20960;-68
2021/06/10 08:52:05;;;;;;;8.50;6.53;;;25.10;76.80;;;;;;2311962;54;21096;-73
2021/06/10 08:54:32;;;;;;;8.00;6.03;;;25.20;76.80;;;;;;2504570;53;20956;-69
2021/06/10 08:56:59;;;;;;;7.55;6.07;;;25.30;77.00;;;;;;2321215;54;20979;-72
2021/06/10 08:59:25;;;;;;;8.43;6.43;;;25.40;77.00;;;;;;2410261;53;20978;-68
2021/06/10 09:01:52;;;;;;;7.87;6.72;;;25.40;76.90;;;;;;2312343;54;21082;-73
2021/06/10 09:04:18;;;;;;;8.30;6.85;;;25.50;76.80;;;;;;2318300;54;20931;-70
2021/06/10 09:06:49;;;;;;;8.07;6.55;;;25.60;76.70;;;;;;2362219;53;21021;-71
2021/06/10 09:09:19;;;;;;;9.07;6.32;;;25.60;76.60;;;;;;2303895;54;21425;-68
2021/06/10 09:11:45;;;;;;;8.63;6.22;;;25.70;76.50;;;;;;2312594;54;20936;-68
2021/06/10 09:14:12;;;;;;;10.57;6.62;;;25.70;76.60;;;;;;2425526;54;21931;-67
2021/06/10 09:16:39;;;;;;;7.90;6.72;;;25.80;76.50;;;;;;2296984;54;21066;-68
2021/06/10 09:19:16;;;;;;;8.55;7.65;;;25.90;76.10;;;;;;2319404;54;20985;-71
2021/06/10 09:21:43;;;;;;;9.32;6.95;;;25.90;75.30;;;;;;2317281;54;20996;-71
2021/06/10 09:24:29;;;;;;;7.65;5.95;;;26.00;76.10;;;;;;2311377;54;21021;-68
2021/06/10 09:27:28;;;;;;;8.18;5.97;;;26.00;74.70;;;;;;2314604;54;20978;-70
2021/06/10 09:30:01;;;;;;;7.60;6.50;;;26.20;73.80;;;;;;2302711;54;21831;-67
2021/06/10 09:32:30;;;;;;;8.32;6.65;;;26.20;75.10;;;;;;2316298;54;21021;-69
2021/06/10 09:35:01;;;;;;;7.68;6.15;;;26.20;76.10;;;;;;2316170;53;21056;-69
2021/06/10 09:37:35;;;;;;;6.70;5.85;;;26.30;75.40;;;;;;2311448;54;21023;-67
2021/06/10 09:40:06;;;;;;;7.87;6.12;;;26.40;75.00;;;;;;2317896;54;20948;-68
2021/06/10 09:42:35;;;;;;;7.97;6.30;;;26.40;75.80;;;;;;2312807;54;21041;-69
2021/06/10 09:45:05;;;;;;;8.48;6.75;;;26.50;75.80;;;;;;2305704;54;22078;-71
2021/06/10 09:47:41;;;;;;;7.40;5.93;;;26.50;75.70;;;;;;2319087;54;21073;-72
2021/06/10 09:50:52;;;;;;;7.47;6.32;;;26.60;74.70;;;;;;2312380;54;21026;-68
2021/06/10 09:53:23;;;;;;;8.27;5.80;;;26.70;73.10;;;;;;2379714;54;20973;-69
2021/06/10 09:55:53;;;;;;;8.57;6.03;;;26.70;75.20;;;;;;2315958;53;21095;-73
2021/06/10 09:58:40;;;;;;;6.30;5.62;;;26.70;75.60;;;;;;2319913;54;20989;-68
2021/06/10 10:01:14;;;;;;;6.62;5.57;;;26.80;75.00;;;;;;2308505;53;21465;-73
2021/06/10 10:03:43;;;;;;;7.10;5.57;;;26.80;75.40;;;;;;2544528;53;21052;-69
2021/06/10 10:06:25;;;;;;;6.50;5.68;;;26.90;75.20;;;;;;2316144;54;20977;-68
2021/06/10 10:09:01;;;;;;;7.32;5.25;;;27.00;75.00;;;;;;2312384;54;21029;-72
2021/06/10 10:11:28;;;;;;;7.07;5.25;;;27.00;73.80;;;;;;2546597;53;21410;-70
2021/06/10 10:13:56;;;;;;;6.28;5.50;;;27.00;74.90;;;;;;2305180;54;20995;-68
2021/06/10 10:16:24;;;;;;;5.62;4.80;;;27.10;75.10;;;;;;2315125;54;21032;-68
2021/06/10 10:18:51;;;;;;;6.25;5.60;;;27.20;75.10;;;;;;2346579;54;21080;-72
2021/06/10 10:21:19;;;;;;;5.97;5.32;;;27.20;75.10;;;;;;2294803;54;21126;-69
2021/06/10 10:23:45;;;;;;;6.05;5.20;;;27.20;75.80;;;;;;2544873;53;21068;-73
2021/06/10 10:26:12;;;;;;;6.45;5.65;;;27.30;75.10;;;;;;2307770;53;20973;-69
2021/06/10 10:28:38;;;;;;;7.00;5.50;;;27.30;74.80;;;;;;2519126;54;21047;-69
2021/06/10 10:31:09;;;;;;;7.05;5.93;;;27.40;74.70;;;;;;2508569;53;21041;-69
2021/06/10 10:33:45;;;;;;;6.90;6.18;;;27.40;74.50;;;;;;2542583;53;21818;-69
2021/06/10 10:36:33;;;;;;;6.97;5.35;;;27.50;73.80;;;;;;2304096;54;21093;-72
2021/06/10 10:39:07;;;;;;;7.20;4.80;;;27.60;72.80;;;;;;2313194;54;21483;-70
2021/06/10 10:41:52;;;;;;;6.25;5.28;;;27.60;73.40;;;;;;2317196;54;20976;-71
2021/06/10 10:44:24;;;;;;;6.53;5.65;;;27.60;74.20;;;;;;2325070;54;21755;-68
2021/06/10 10:47:08;;;;;;;6.68;5.37;;;27.70;73.30;;;;;;2416408;54;20989;-69
2021/06/10 10:49:48;;;;;;;6.43;5.35;;;27.70;71.90;;;;;;2317352;54;20936;-72
2021/06/10 10:52:29;;;;;;;6.43;5.03;;;27.80;72.40;;;;;;2322759;54;21009;-68
2021/06/10 10:55:16;;;;;;;5.55;4.50;;;27.80;72.80;;;;;;2285724;54;21046;-69
2021/06/10 10:57:44;;;;;;;6.62;5.30;;;27.90;72.60;;;;;;2488738;54;20940;-72
2021/06/10 11:00:13;;;;;;;5.95;5.25;;;27.90;74.50;;;;;;2319680;54;20996;-72
2021/06/10 11:02:51;;;;;;;6.93;5.72;;;28.00;74.20;;;;;;2546068;53;20960;-74
2021/06/10 11:05:32;;;;;;;6.25;5.50;;;28.00;72.70;;;;;;2315750;54;20981;-68
2021/06/10 11:07:58;;;;;;;5.82;5.22;;;28.10;72.00;;;;;;2308559;54;21073;-68
2021/06/10 11:11:06;;;;;;;6.12;5.37;;;28.10;73.80;;;;;;2542970;53;20957;-70
2021/06/10 11:13:45;;;;;;;5.55;4.62;;;28.20;71.20;;;;;;2312386;54;21132;-69
2021/06/10 11:16:11;;;;;;;5.50;4.93;;;28.20;72.00;;;;;;2306279;54;20972;-72
2021/06/10 11:18:52;;;;;;;6.40;5.30;;;28.30;73.80;;;;;;2314941;54;20997;-72
2021/06/10 11:22:09;;;;;;;6.40;5.68;;;28.40;71.40;;;;;;2309128;54;21033;-69
2021/06/10 11:24:46;;;;;;;6.37;5.35;;;28.40;70.70;;;;;;2312124;54;20972;-68
2021/06/10 11:27:12;;;;;;;6.78;5.32;;;28.50;71.20;;;;;;2309264;54;21485;-69
2021/06/10 11:30:13;;;;;;;6.87;5.70;;;28.50;73.10;;;;;;2532515;53;21817;-69
2021/06/10 11:39:46;;;;;;;6.57;5.82;;;28.60;70.60;;;;;;2313580;54;20985;-71
2021/06/10 11:42:12;;;;;;;5.57;4.95;;;28.70;70.90;;;;;;2321891;54;21004;-68
2021/06/10 11:44:47;;;;;;;6.50;5.18;;;28.90;73.90;;;;;;2309640;54;20977;-68
2021/06/10 11:47:24;;;;;;;6.12;5.50;;;28.90;72.40;;;;;;2307319;54;21012;-68
2021/06/10 11:49:50;;;;;;;6.95;5.62;;;28.90;72.10;;;;;;2313825;54;21862;-68
2021/06/10 11:52:17;;;;;;;6.55;5.85;;;28.90;73.30;;;;;;2315659;54;21453;-69
2021/06/10 11:55:02;;;;;;;8.13;6.72;;;29.00;72.90;;;;;;2304214;54;21784;-68
2021/06/10 11:57:34;;;;;;;7.90;6.40;;;29.00;70.10;;;;;;2546666;53;20929;-72
2021/06/10 12:00:10;;;;;;;7.80;6.97;;;29.00;71.30;;;;;;2316494;54;20945;-72
2021/06/10 12:02:37;;;;;;;7.75;6.93;;;29.10;69.70;;;;;;2317508;54;21422;-71
2021/06/10 12:05:11;;;;;;;7.97;7.22;;;29.10;71.40;;;;;;2547045;53;21017;-71
2021/06/10 12:07:38;;;;;;;7.72;6.93;;;29.10;69.90;;;;;;2344139;53;20997;-72
2021/06/10 12:10:09;;;;;;;7.78;6.97;;;29.10;71.00;;;;;;2313855;54;21060;-68
2021/06/10 12:12:41;;;;;;;7.82;6.65;;;29.20;70.70;;;;;;2544005;53;21446;-68
2021/06/10 12:15:09;;;;;;;;;;;29.20;71.00;;;;;;2322195;54;20983;-69
2021/06/10 12:17:54;;;;;;;7.15;6.45;;;29.30;69.80;;;;;;2312940;53;20084;-70
2021/06/10 12:20:23;;;;;;;8.18;7.37;;;29.30;69.10;;;;;;2316243;54;21044;-72
2021/06/10 12:22:56;;;;;;;7.35;6.65;;;29.30;71.10;;;;;;2316942;54;20949;-68
2021/06/10 12:25:24;;;;;;;9.25;7.65;;;29.40;70.80;;;;;;2305138;54;21069;-69
2021/06/10 12:27:54;;;;;;;7.90;6.78;;;29.40;70.00;;;;;;2314792;54;20981;-68
2021/06/10 12:34:50;;;;;;;7.57;6.82;;;29.40;68.90;;;;;;2315526;54;21400;-69
2021/06/10 12:37:18;;;;;;;6.62;6.03;;;29.60;68.90;;;;;;2437049;53;20981;-70
2021/06/10 12:39:44;;;;;;;7.60;6.60;;;29.70;71.30;;;;;;2314416;53;20945;-68
2021/06/10 12:42:13;;;;;;;8.43;6.95;;;29.70;70.70;;;;;;2415231;53;21013;-69
2021/06/10 12:44:39;;;;;;;8.15;7.37;;;29.70;70.00;;;;;;2315521;54;21048;-69
2021/06/10 12:47:06;;;;;;;8.70;7.80;;;29.80;70.20;;;;;;2317972;54;21319;-70
2021/06/10 12:49:47;;;;;;;8.50;7.70;;;29.90;69.90;;;;;;2476176;53;21017;-69
2021/06/10 12:52:26;;;;;;;8.52;7.62;;;29.90;67.80;;;;;;2306311;54;21860;-76
2021/06/10 12:54:57;;;;;;;8.50;7.50;;;29.90;68.40;;;;;;2318972;54;20980;-69
2021/06/10 12:57:30;;;;;;;8.18;7.37;;;30.00;68.30;;;;;;2307567;54;21884;-69
2021/06/10 12:59:58;;;;;;;8.20;7.40;;;30.10;68.30;;;;;;2316058;54;20949;-69
2021/06/10 13:02:25;;;;;;;8.52;7.72;;;30.10;68.80;;;;;;2315440;54;20977;-69
2021/06/10 13:04:56;;;;;;;8.27;7.50;;;30.10;68.50;;;;;;2319081;54;21052;-70
2021/06/10 13:07:41;;;;;;;8.52;7.62;;;30.20;67.60;;;;;;2287219;54;21434;-72
2021/06/10 13:10:08;;;;;;;9.20;8.02;;;30.20;66.10;;;;;;2315163;54;21013;-69
2021/06/10 13:12:47;;;;;;;11.15;7.53;;;30.20;68.10;;;;;;2308989;54;21018;-74
2021/06/10 13:15:23;;;;;;;8.38;7.50;;;30.30;65.70;;;;;;2315390;54;20925;-75